»·PEaware :: N313N KSBP-KSNA

N313N :: KSBP-KSNA

FLIGHT INFORMATION

Flight Status: Arrived
Operator: Privately registered:
United States
More flights under this callsign
Pilot: Damien O. (2415)
Aircraft: GULFSTREAM G-1159C GULFSTREAM 4
(GLF4)
More flights by this aircraft type
Origin: KSBP San Luis Co Regl
United States
Destination: KSNA John Wayne-Orange Co
United States
More flights between these airports :: More routes between these airports
Route: ++ WEEZL V208 SXC SLI
File this flight plan on PilotEdge
Remarks:
Altitude:
(Current/Filed)
11,000ft
Speed:
(Current/Filed)
330kts
Departed: 04-Apr-19 06:45 PM
Arrived: 04-Apr-19 07:26 PM
Distance/Time
Traveled:
166nm/0:41
Distance/Time
To Go:
Arrived

Flight Plot

Page will automatically refresh every two minutes.

Flight plan parsing failed; only flown route is shown


Map Options




Map Legend


Flown Route
Filed Route
Departure Airport
Arrival Airport
Navaid (VOR, NDB)
Fix

Horizontal Profiles

Position Reports

Time Latitude Longitude Heading Altitude Ground
Speed
04-Apr-19 18:35 35.236642 -120.637062 79 219ft 0kts
04-Apr-19 18:36 35.236642 -120.637062 79 219ft 0kts
04-Apr-19 18:37 35.236642 -120.637062 79 219ft 0kts
04-Apr-19 18:38 35.236642 -120.637062 79 219ft 0kts
04-Apr-19 18:39 35.236642 -120.637062 79 219ft 0kts
04-Apr-19 18:40 35.236642 -120.637062 79 219ft 0kts
04-Apr-19 18:40 35.236642 -120.637062 79 219ft 0kts
04-Apr-19 18:42 35.234661 -120.634442 123 219ft 26kts
04-Apr-19 18:43 35.233442 -120.632421 154 219ft 0kts
04-Apr-19 18:44 35.232853 -120.633034 299 219ft 4kts
04-Apr-19 18:44 35.234164 -120.635379 304 219ft 81kts
04-Apr-19 18:46 35.268671 -120.694631 303 1188ft 236kts
04-Apr-19 18:47 35.310372 -120.768751 303 3191ft 262kts
04-Apr-19 18:47 35.296182 -120.831031 191 4218ft 260kts
04-Apr-19 18:48 35.238690 -120.780930 132 6126ft 270kts
04-Apr-19 18:49 35.196233 -120.721649 132 8667ft 281kts
04-Apr-19 18:50 35.143436 -120.647896 132 10982ft 390kts
04-Apr-19 18:51 35.082512 -120.563391 132 10995ft 382kts
04-Apr-19 18:52 35.030863 -120.491860 132 10994ft 421kts
04-Apr-19 18:53 34.959143 -120.391330 132 10991ft 421kts
04-Apr-19 18:54 34.887171 -120.299922 137 10990ft 427kts
04-Apr-19 18:55 34.785184 -120.176943 137 10996ft 426kts
04-Apr-19 18:56 34.686457 -120.057659 137 10999ft 426kts
04-Apr-19 18:57 34.595614 -119.947909 137 11001ft 426kts
04-Apr-19 18:58 34.512700 -119.850724 138 11006ft 426kts
04-Apr-19 18:59 34.459400 -119.788614 138 11007ft 449kts
04-Apr-19 19:00 34.399703 -119.719583 138 11009ft 472kts
04-Apr-19 19:01 34.341033 -119.651721 137 11010ft 471kts
04-Apr-19 19:02 34.278868 -119.579852 137 11010ft 471kts
04-Apr-19 19:03 34.126101 -119.403463 137 11011ft 471kts
04-Apr-19 19:04 34.049953 -119.316164 138 11000ft 475kts
04-Apr-19 19:05 33.973345 -119.228684 138 11005ft 474kts
04-Apr-19 19:06 33.900719 -119.145583 138 11008ft 473kts
04-Apr-19 19:07 33.830601 -119.060957 132 11013ft 474kts
04-Apr-19 19:08 33.764671 -118.968278 131 11009ft 473kts
04-Apr-19 19:09 33.698796 -118.874680 131 11001ft 470kts
04-Apr-19 19:10 33.636367 -118.785377 131 11000ft 466kts
04-Apr-19 19:11 33.569121 -118.685411 117 11000ft 451kts
04-Apr-19 19:12 33.578996 -118.563555 71 11004ft 393kts
04-Apr-19 19:13 33.610679 -118.451790 71 10568ft 402kts
04-Apr-19 19:14 33.632997 -118.372454 74 9270ft 375kts
04-Apr-19 19:15 33.641544 -118.299199 83 8043ft 350kts
04-Apr-19 19:16 33.648561 -118.231937 83 6839ft 333kts
04-Apr-19 19:17 33.658700 -118.137073 83 5101ft 311kts
04-Apr-19 19:18 33.667572 -118.057698 83 4403ft 270kts
04-Apr-19 19:19 33.674878 -117.990725 83 2899ft 255kts
04-Apr-19 19:20 33.680717 -117.934011 83 1992ft 201kts
04-Apr-19 19:21 33.698555 -117.900727 31 2015ft 166kts
04-Apr-19 19:22 33.724302 -117.873158 75 1757ft 173kts
04-Apr-19 19:23 33.700640 -117.854662 199 608ft 147kts
04-Apr-19 19:24 33.677677 -117.867644 208 64ft 109kts
04-Apr-19 19:25 33.669942 -117.872137 176 64ft 18kts
04-Apr-19 19:26 33.669044 -117.871160 83 64ft 17kts
04-Apr-19 19:27 33.671346 -117.867995 130 64ft 0kts

Navigation Log

Ident Type
Flight plan parsing failed, navigation log unavailable